GIB016 DRRN-DNAA
Flight info
| Callsign | GIB016 |
|---|---|
| Flight time | 1h 11m |
| Altitude | 37000 |
| Route | DIKSU1W DIKSU DCT BOVDA UL684 UGBUS UQ400 NEDRI DCT UBEMO UBEMO1N |
| Aircraft | A320/M-SDE3FGHIRWY/LB1 |
Departure
| Time | 2026-05-04 18:41 |
|---|---|
| Airport | Diori Hamani International Airport (DRRN) |
Arrival
| Time | 2026-05-04 19:52 |
|---|---|
| Airport | Nnamdi Azikiwe International Airport (DNAA) |
| Time | Latitude | Longitude | Altitude | Speed | Heading |
|---|---|---|---|---|---|
| 2026-05-04 18:20 | 13.47821 | 2.18048 | 739 ft | 0 kts | 268° |
| 2026-05-04 18:30 | 13.47865 | 2.18008 | 739 ft | 8 kts | 46° |
| 2026-05-04 18:30 | 13.47879 | 2.18066 | 739 ft | 13 kts | 80° |
| 2026-05-04 18:30 | 13.47891 | 2.18211 | 737 ft | 26 kts | 88° |
| 2026-05-04 18:31 | 13.47874 | 2.18409 | 736 ft | 24 kts | 96° |
| 2026-05-04 18:31 | 13.47932 | 2.18518 | 733 ft | 18 kts | 18° |
| 2026-05-04 18:31 | 13.48018 | 2.18511 | 735 ft | 10 kts | 12° |
| 2026-05-04 18:31 | 13.48038 | 2.18557 | 734 ft | 7 kts | 84° |
| 2026-05-04 18:32 | 13.48047 | 2.18629 | 734 ft | 14 kts | 83° |
| 2026-05-04 18:32 | 13.48059 | 2.18752 | 732 ft | 21 kts | 85° |
| 2026-05-04 18:32 | 13.48058 | 2.18924 | 731 ft | 27 kts | 90° |
| 2026-05-04 18:32 | 13.48072 | 2.19138 | 730 ft | 33 kts | 86° |
| 2026-05-04 18:33 | 13.48081 | 2.19383 | 727 ft | 35 kts | 89° |
| 2026-05-04 18:33 | 13.48094 | 2.19586 | 725 ft | 23 kts | 85° |
| 2026-05-04 18:33 | 13.48115 | 2.19686 | 725 ft | 11 kts | 54° |
| 2026-05-04 18:33 | 13.48165 | 2.19706 | 724 ft | 0 kts | 2° |
| 2026-05-04 18:37 | 13.48205 | 2.19706 | 724 ft | 15 kts | 359° |
| 2026-05-04 18:37 | 13.48277 | 2.19764 | 726 ft | 13 kts | 70° |
| 2026-05-04 18:37 | 13.48291 | 2.19851 | 725 ft | 12 kts | 83° |
| 2026-05-04 18:38 | 13.48298 | 2.19966 | 722 ft | 22 kts | 88° |
| 2026-05-04 18:38 | 13.48305 | 2.20161 | 718 ft | 30 kts | 88° |
| 2026-05-04 18:38 | 13.48271 | 2.20341 | 715 ft | 25 kts | 117° |
| 2026-05-04 18:38 | 13.48289 | 2.20430 | 711 ft | 13 kts | 15° |
| 2026-05-04 18:39 | 13.48317 | 2.20401 | 714 ft | 0 kts | 281° |
| 2026-05-04 18:39 | 13.48318 | 2.20381 | 714 ft | 11 kts | 272° |
| 2026-05-04 18:40 | 13.48307 | 2.20143 | 718 ft | 66 kts | 268° |
| 2026-05-04 18:40 | 13.48274 | 2.19456 | 724 ft | 125 kts | 267° |
| 2026-05-04 18:40 | 13.48225 | 2.18393 | 743 ft | 170 kts | 266° |
| 2026-05-04 18:40 | 13.48156 | 2.17161 | 1233 ft | 177 kts | 259° |
| 2026-05-04 18:41 | 13.47546 | 2.16099 | 1916 ft | 179 kts | 221° |
| 2026-05-04 18:41 | 13.46393 | 2.15556 | 2318 ft | 194 kts | 191° |
| 2026-05-04 18:41 | 13.44970 | 2.15701 | 2511 ft | 222 kts | 160° |
| 2026-05-04 18:41 | 13.43741 | 2.16762 | 2731 ft | 247 kts | 122° |
| 2026-05-04 18:42 | 13.43355 | 2.18498 | 3055 ft | 262 kts | 83° |
| 2026-05-04 18:42 | 13.43812 | 2.20321 | 3594 ft | 268 kts | 69° |
| 2026-05-04 18:42 | 13.44555 | 2.22157 | 3966 ft | 284 kts | 63° |
| 2026-05-04 18:42 | 13.45411 | 2.24011 | 4658 ft | 289 kts | 63° |
| 2026-05-04 18:43 | 13.46270 | 2.25850 | 5417 ft | 289 kts | 63° |
| 2026-05-04 18:43 | 13.46898 | 2.27811 | 6214 ft | 292 kts | 84° |
| 2026-05-04 18:43 | 13.46707 | 2.29882 | 7050 ft | 290 kts | 98° |
| 2026-05-04 18:43 | 13.46345 | 2.31912 | 7912 ft | 287 kts | 98° |
| 2026-05-04 18:44 | 13.45987 | 2.33904 | 8715 ft | 286 kts | 98° |
| 2026-05-04 18:44 | 13.45865 | 2.34581 | 8980 ft | 286 kts | 98° |
| 2026-05-04 18:44 | 13.45262 | 2.37945 | 10105 ft | 293 kts | 99° |
| 2026-05-04 18:44 | 13.44883 | 2.40089 | 10249 ft | 316 kts | 99° |
| 2026-05-04 18:45 | 13.44483 | 2.42353 | 10507 ft | 332 kts | 99° |
| 2026-05-04 18:45 | 13.44066 | 2.44714 | 11064 ft | 337 kts | 99° |
| 2026-05-04 18:45 | 13.43641 | 2.47097 | 11713 ft | 340 kts | 99° |
| 2026-05-04 18:45 | 13.43212 | 2.49496 | 12366 ft | 343 kts | 99° |
| 2026-05-04 18:46 | 13.42780 | 2.51911 | 13025 ft | 345 kts | 99° |
| 2026-05-04 18:46 | 13.42344 | 2.54347 | 13663 ft | 348 kts | 99° |
| 2026-05-04 18:46 | 13.41906 | 2.56802 | 14221 ft | 351 kts | 99° |
| 2026-05-04 18:46 | 13.41463 | 2.59285 | 14754 ft | 355 kts | 99° |
| 2026-05-04 18:47 | 13.41022 | 2.61763 | 15266 ft | 358 kts | 99° |
| 2026-05-04 18:47 | 13.40571 | 2.64301 | 15783 ft | 362 kts | 99° |
| 2026-05-04 18:47 | 13.40113 | 2.66863 | 16294 ft | 366 kts | 99° |
| 2026-05-04 18:47 | 13.39649 | 2.69455 | 16788 ft | 370 kts | 99° |
| 2026-05-04 18:48 | 13.39180 | 2.72072 | 17293 ft | 374 kts | 99° |
| 2026-05-04 18:48 | 13.38713 | 2.74686 | 17774 ft | 378 kts | 99° |
| 2026-05-04 18:48 | 13.38232 | 2.77364 | 18240 ft | 382 kts | 99° |
| 2026-05-04 18:48 | 13.37747 | 2.80061 | 18677 ft | 385 kts | 99° |
| 2026-05-04 18:49 | 13.37260 | 2.82781 | 19129 ft | 388 kts | 99° |
| 2026-05-04 18:49 | 13.36769 | 2.85522 | 19576 ft | 391 kts | 99° |
| 2026-05-04 18:49 | 13.36275 | 2.88283 | 20037 ft | 394 kts | 99° |
| 2026-05-04 18:49 | 13.35783 | 2.91026 | 20491 ft | 397 kts | 99° |
| 2026-05-04 18:50 | 13.35278 | 2.93832 | 20930 ft | 400 kts | 99° |
| 2026-05-04 18:50 | 13.34767 | 2.96654 | 21377 ft | 403 kts | 99° |
| 2026-05-04 18:50 | 13.34252 | 2.99495 | 21828 ft | 405 kts | 99° |
| 2026-05-04 18:50 | 13.33733 | 3.02357 | 22254 ft | 409 kts | 99° |
| 2026-05-04 18:51 | 13.33212 | 3.05243 | 22685 ft | 411 kts | 99° |
| 2026-05-04 18:51 | 13.32696 | 3.08110 | 23081 ft | 414 kts | 99° |
| 2026-05-04 18:51 | 13.32169 | 3.11036 | 23466 ft | 417 kts | 99° |
| 2026-05-04 18:51 | 13.31639 | 3.13977 | 23780 ft | 420 kts | 99° |
| 2026-05-04 18:52 | 13.31103 | 3.16944 | 24088 ft | 424 kts | 99° |
| 2026-05-04 18:52 | 13.30559 | 3.19938 | 24388 ft | 427 kts | 99° |
| 2026-05-04 18:52 | 13.30012 | 3.22951 | 24671 ft | 430 kts | 99° |
| 2026-05-04 18:52 | 13.29463 | 3.25985 | 24958 ft | 434 kts | 99° |
| 2026-05-04 18:53 | 13.28917 | 3.29005 | 25242 ft | 437 kts | 99° |
| 2026-05-04 18:53 | 13.28358 | 3.32085 | 25522 ft | 440 kts | 99° |
| 2026-05-04 18:53 | 13.27797 | 3.35185 | 25797 ft | 443 kts | 99° |
| 2026-05-04 18:53 | 13.27229 | 3.38306 | 26068 ft | 446 kts | 99° |
| 2026-05-04 18:54 | 13.26849 | 3.40388 | 26244 ft | 448 kts | 99° |
| 2026-05-04 18:54 | 13.26272 | 3.43538 | 26505 ft | 451 kts | 99° |
| 2026-05-04 18:54 | 13.25241 | 3.47696 | 26836 ft | 456 kts | 111° |
| 2026-05-04 18:54 | 13.23702 | 3.50565 | 27087 ft | 460 kts | 126° |
| 2026-05-04 18:55 | 13.22325 | 3.52228 | 27246 ft | 463 kts | 136° |
| 2026-05-04 18:55 | 13.15809 | 3.55896 | 27811 ft | 465 kts | 169° |
| 2026-05-04 18:55 | 13.13641 | 3.56226 | 27977 ft | 465 kts | 176° |
| 2026-05-04 18:56 | 13.10407 | 3.56547 | 28230 ft | 468 kts | 176° |
| 2026-05-04 18:56 | 13.07198 | 3.56863 | 28493 ft | 469 kts | 176° |
| 2026-05-04 18:56 | 13.03938 | 3.57183 | 28748 ft | 471 kts | 176° |
| 2026-05-04 18:56 | 13.00658 | 3.57508 | 28994 ft | 473 kts | 176° |
| 2026-05-04 18:57 | 12.97359 | 3.57836 | 29234 ft | 475 kts | 176° |
| 2026-05-04 18:57 | 12.94060 | 3.58165 | 29470 ft | 477 kts | 176° |
| 2026-05-04 18:57 | 12.90784 | 3.58493 | 29689 ft | 479 kts | 177° |
| 2026-05-04 18:57 | 12.87451 | 3.58826 | 29901 ft | 481 kts | 177° |
| 2026-05-04 18:58 | 12.84119 | 3.59159 | 30090 ft | 482 kts | 177° |
| 2026-05-04 18:58 | 12.80772 | 3.59493 | 30285 ft | 483 kts | 177° |
| 2026-05-04 18:58 | 12.77419 | 3.59828 | 30474 ft | 484 kts | 177° |
| 2026-05-04 18:58 | 12.74055 | 3.60162 | 30661 ft | 485 kts | 176° |
| 2026-05-04 18:59 | 12.70734 | 3.60491 | 30874 ft | 484 kts | 176° |
| 2026-05-04 18:59 | 12.67379 | 3.60824 | 31147 ft | 483 kts | 176° |
| 2026-05-04 18:59 | 12.64032 | 3.61157 | 31412 ft | 481 kts | 176° |
| 2026-05-04 18:59 | 12.60695 | 3.61491 | 31678 ft | 480 kts | 176° |
| 2026-05-04 19:00 | 12.57363 | 3.61824 | 31946 ft | 479 kts | 176° |
| 2026-05-04 19:00 | 12.54041 | 3.62151 | 32215 ft | 478 kts | 176° |
| 2026-05-04 19:00 | 12.50781 | 3.62549 | 32476 ft | 478 kts | 171° |
| 2026-05-04 19:00 | 12.47566 | 3.63462 | 32740 ft | 480 kts | 160° |
| 2026-05-04 19:01 | 12.44548 | 3.64936 | 33006 ft | 481 kts | 150° |
| 2026-05-04 19:01 | 12.41806 | 3.66929 | 33252 ft | 483 kts | 140° |
| 2026-05-04 19:01 | 12.39449 | 3.69322 | 33499 ft | 483 kts | 134° |
| 2026-05-04 19:01 | 12.37164 | 3.71854 | 33754 ft | 482 kts | 134° |
| 2026-05-04 19:02 | 12.34883 | 3.74370 | 34026 ft | 480 kts | 134° |
| 2026-05-04 19:02 | 12.32607 | 3.76871 | 34264 ft | 480 kts | 134° |
| 2026-05-04 19:02 | 12.30328 | 3.79370 | 34472 ft | 479 kts | 134° |
| 2026-05-04 19:02 | 12.28078 | 3.81839 | 34669 ft | 479 kts | 134° |
| 2026-05-04 19:03 | 12.25802 | 3.84338 | 34852 ft | 479 kts | 134° |
| 2026-05-04 19:03 | 12.23525 | 3.86840 | 35043 ft | 479 kts | 134° |
| 2026-05-04 19:03 | 12.21249 | 3.89344 | 35227 ft | 480 kts | 134° |
| 2026-05-04 19:03 | 12.18977 | 3.91845 | 35406 ft | 479 kts | 134° |
| 2026-05-04 19:04 | 12.16733 | 3.94316 | 35581 ft | 480 kts | 134° |
| 2026-05-04 19:04 | 12.14467 | 3.96813 | 35753 ft | 479 kts | 134° |
| 2026-05-04 19:04 | 12.12196 | 3.99309 | 35927 ft | 479 kts | 134° |
| 2026-05-04 19:04 | 12.09923 | 4.01805 | 36093 ft | 479 kts | 134° |
| 2026-05-04 19:05 | 12.07648 | 4.04300 | 36261 ft | 479 kts | 134° |
| 2026-05-04 19:05 | 12.05372 | 4.06798 | 36426 ft | 479 kts | 134° |
| 2026-05-04 19:05 | 12.03102 | 4.09294 | 36582 ft | 479 kts | 134° |
| 2026-05-04 19:05 | 12.00830 | 4.11794 | 36744 ft | 479 kts | 134° |
| 2026-05-04 19:06 | 11.96327 | 4.16745 | 36793 ft | 477 kts | 134° |
| 2026-05-04 19:06 | 11.91791 | 4.21713 | 36794 ft | 477 kts | 134° |
| 2026-05-04 19:07 | 11.87254 | 4.26671 | 36791 ft | 478 kts | 134° |
| 2026-05-04 19:07 | 11.82709 | 4.31639 | 36791 ft | 478 kts | 134° |
| 2026-05-04 19:08 | 11.78193 | 4.36577 | 36796 ft | 478 kts | 134° |
| 2026-05-04 19:08 | 11.73638 | 4.41552 | 36802 ft | 479 kts | 134° |
| 2026-05-04 19:09 | 11.69079 | 4.46521 | 36803 ft | 479 kts | 134° |
| 2026-05-04 19:09 | 11.64523 | 4.51482 | 36805 ft | 479 kts | 134° |
| 2026-05-04 19:10 | 11.60003 | 4.56409 | 36811 ft | 477 kts | 134° |
| 2026-05-04 19:10 | 11.55451 | 4.61338 | 36813 ft | 476 kts | 134° |
| 2026-05-04 19:11 | 11.50876 | 4.66240 | 36809 ft | 476 kts | 134° |
| 2026-05-04 19:11 | 11.46341 | 4.71102 | 36808 ft | 475 kts | 134° |
| 2026-05-04 19:12 | 11.39530 | 4.78423 | 36807 ft | 474 kts | 134° |
| 2026-05-04 19:13 | 11.34980 | 4.83306 | 36804 ft | 474 kts | 134° |
| 2026-05-04 19:13 | 11.30452 | 4.88156 | 36809 ft | 474 kts | 134° |
| 2026-05-04 19:14 | 11.25891 | 4.93036 | 36807 ft | 474 kts | 134° |
| 2026-05-04 19:14 | 11.21333 | 4.97921 | 36802 ft | 475 kts | 134° |
| 2026-05-04 19:15 | 11.16805 | 5.02776 | 36805 ft | 475 kts | 134° |
| 2026-05-04 19:15 | 11.12244 | 5.07660 | 36815 ft | 475 kts | 134° |
| 2026-05-04 19:16 | 11.07670 | 5.12551 | 36820 ft | 476 kts | 134° |
| 2026-05-04 19:16 | 11.03123 | 5.17404 | 36821 ft | 476 kts | 134° |
| 2026-05-04 19:17 | 10.98554 | 5.22293 | 36825 ft | 476 kts | 134° |
| 2026-05-04 19:17 | 10.93981 | 5.27178 | 36822 ft | 476 kts | 134° |
| 2026-05-04 19:18 | 10.89445 | 5.32026 | 36824 ft | 475 kts | 134° |
| 2026-05-04 19:18 | 10.84874 | 5.36902 | 36822 ft | 475 kts | 134° |
| 2026-05-04 19:19 | 10.80316 | 5.41775 | 36822 ft | 475 kts | 134° |
| 2026-05-04 19:19 | 10.75750 | 5.46640 | 36825 ft | 475 kts | 134° |
| 2026-05-04 19:20 | 10.71214 | 5.51464 | 36828 ft | 474 kts | 134° |
| 2026-05-04 19:20 | 10.66659 | 5.56313 | 36831 ft | 474 kts | 134° |
| 2026-05-04 19:21 | 10.62091 | 5.61182 | 36829 ft | 474 kts | 134° |
| 2026-05-04 19:21 | 10.57521 | 5.66044 | 36833 ft | 475 kts | 134° |
| 2026-05-04 19:22 | 10.52987 | 5.70866 | 36830 ft | 475 kts | 134° |
| 2026-05-04 19:22 | 10.48417 | 5.75728 | 36830 ft | 474 kts | 134° |
| 2026-05-04 19:23 | 10.43858 | 5.80580 | 36835 ft | 473 kts | 134° |
| 2026-05-04 19:23 | 10.39319 | 5.85399 | 36836 ft | 473 kts | 134° |
| 2026-05-04 19:24 | 10.34756 | 5.90234 | 36832 ft | 473 kts | 134° |
| 2026-05-04 19:24 | 10.30236 | 5.95033 | 36833 ft | 473 kts | 134° |
| 2026-05-04 19:25 | 10.25690 | 5.99862 | 36833 ft | 473 kts | 134° |
| 2026-05-04 19:25 | 10.21128 | 6.04693 | 36833 ft | 473 kts | 134° |
| 2026-05-04 19:26 | 10.16340 | 6.09250 | 36822 ft | 470 kts | 147° |
| 2026-05-04 19:26 | 10.10535 | 6.12071 | 36821 ft | 465 kts | 167° |
| 2026-05-04 19:27 | 10.04150 | 6.13015 | 36818 ft | 463 kts | 176° |
| 2026-05-04 19:27 | 9.97725 | 6.13638 | 36820 ft | 464 kts | 176° |
| 2026-05-04 19:28 | 9.91290 | 6.14272 | 36821 ft | 464 kts | 176° |
| 2026-05-04 19:28 | 9.84853 | 6.14903 | 36824 ft | 464 kts | 176° |
| 2026-05-04 19:28 | 9.81669 | 6.15212 | 36582 ft | 467 kts | 176° |
| 2026-05-04 19:29 | 9.78432 | 6.15528 | 35965 ft | 466 kts | 176° |
| 2026-05-04 19:29 | 9.75203 | 6.15841 | 35365 ft | 465 kts | 176° |
| 2026-05-04 19:29 | 9.71968 | 6.16153 | 34781 ft | 466 kts | 176° |
| 2026-05-04 19:29 | 9.68733 | 6.16463 | 34203 ft | 467 kts | 176° |
| 2026-05-04 19:30 | 9.65480 | 6.16775 | 33627 ft | 469 kts | 176° |
| 2026-05-04 19:30 | 9.62273 | 6.17084 | 32998 ft | 468 kts | 176° |
| 2026-05-04 19:30 | 9.59033 | 6.17397 | 32380 ft | 465 kts | 176° |
| 2026-05-04 19:30 | 9.55811 | 6.17708 | 31774 ft | 463 kts | 175° |
| 2026-05-04 19:31 | 9.52611 | 6.18016 | 31183 ft | 460 kts | 175° |
| 2026-05-04 19:31 | 9.49425 | 6.18320 | 30614 ft | 457 kts | 175° |
| 2026-05-04 19:31 | 9.46305 | 6.18619 | 30077 ft | 454 kts | 175° |
| 2026-05-04 19:31 | 9.43161 | 6.18922 | 29477 ft | 452 kts | 175° |
| 2026-05-04 19:32 | 9.40040 | 6.19222 | 28846 ft | 449 kts | 175° |
| 2026-05-04 19:32 | 9.36930 | 6.19551 | 28229 ft | 447 kts | 171° |
| 2026-05-04 19:32 | 9.33943 | 6.20367 | 27627 ft | 444 kts | 158° |
| 2026-05-04 19:32 | 9.31227 | 6.21820 | 27040 ft | 441 kts | 144° |
| 2026-05-04 19:33 | 9.28917 | 6.23834 | 26464 ft | 437 kts | 131° |
| 2026-05-04 19:33 | 9.27121 | 6.26302 | 25902 ft | 432 kts | 118° |
| 2026-05-04 19:33 | 9.25858 | 6.29008 | 25350 ft | 428 kts | 111° |
| 2026-05-04 19:33 | 9.24679 | 6.31762 | 24814 ft | 426 kts | 112° |
| 2026-05-04 19:34 | 9.23502 | 6.34504 | 24316 ft | 422 kts | 112° |
| 2026-05-04 19:34 | 9.22335 | 6.37216 | 23875 ft | 417 kts | 112° |
| 2026-05-04 19:34 | 9.21179 | 6.39893 | 23444 ft | 412 kts | 112° |
| 2026-05-04 19:34 | 9.20049 | 6.42506 | 22928 ft | 397 kts | 112° |
| 2026-05-04 19:35 | 9.18996 | 6.45033 | 22417 ft | 381 kts | 108° |
| 2026-05-04 19:35 | 9.18337 | 6.47581 | 21916 ft | 369 kts | 99° |
| 2026-05-04 19:35 | 9.17892 | 6.50128 | 21429 ft | 366 kts | 99° |
| 2026-05-04 19:35 | 9.17450 | 6.52634 | 20948 ft | 365 kts | 99° |
| 2026-05-04 19:36 | 9.17001 | 6.55161 | 20476 ft | 364 kts | 99° |
| 2026-05-04 19:36 | 9.16549 | 6.57686 | 20002 ft | 363 kts | 99° |
| 2026-05-04 19:36 | 9.16095 | 6.60205 | 19540 ft | 362 kts | 99° |
| 2026-05-04 19:36 | 9.15642 | 6.62712 | 19083 ft | 361 kts | 99° |
| 2026-05-04 19:37 | 9.15191 | 6.65206 | 18655 ft | 359 kts | 99° |
| 2026-05-04 19:37 | 9.14743 | 6.67684 | 18232 ft | 357 kts | 99° |
| 2026-05-04 19:37 | 9.14298 | 6.70152 | 17768 ft | 355 kts | 99° |
| 2026-05-04 19:37 | 9.13860 | 6.72582 | 17291 ft | 354 kts | 99° |
| 2026-05-04 19:38 | 9.13421 | 6.75021 | 16870 ft | 350 kts | 99° |
| 2026-05-04 19:38 | 9.12988 | 6.77436 | 16476 ft | 346 kts | 99° |
| 2026-05-04 19:38 | 9.12562 | 6.79821 | 16082 ft | 343 kts | 99° |
| 2026-05-04 19:38 | 9.12142 | 6.82171 | 15690 ft | 331 kts | 99° |
| 2026-05-04 19:39 | 9.11739 | 6.84414 | 15315 ft | 317 kts | 99° |
| 2026-05-04 19:39 | 9.11350 | 6.86566 | 14939 ft | 305 kts | 99° |
| 2026-05-04 19:39 | 9.10977 | 6.88632 | 14582 ft | 299 kts | 99° |
| 2026-05-04 19:39 | 9.10606 | 6.90693 | 14206 ft | 296 kts | 98° |
| 2026-05-04 19:40 | 9.10236 | 6.92745 | 13849 ft | 297 kts | 98° |
| 2026-05-04 19:40 | 9.09865 | 6.94802 | 13472 ft | 297 kts | 98° |
| 2026-05-04 19:40 | 9.09495 | 6.96860 | 13063 ft | 296 kts | 98° |
| 2026-05-04 19:40 | 9.09127 | 6.98915 | 12665 ft | 296 kts | 98° |
| 2026-05-04 19:41 | 9.08884 | 7.00275 | 12410 ft | 296 kts | 98° |
| 2026-05-04 19:41 | 9.08401 | 7.02945 | 11880 ft | 288 kts | 98° |
| 2026-05-04 19:41 | 9.08044 | 7.04929 | 11498 ft | 286 kts | 98° |
| 2026-05-04 19:41 | 9.07690 | 7.06904 | 11117 ft | 284 kts | 98° |
| 2026-05-04 19:42 | 9.07336 | 7.08870 | 10742 ft | 284 kts | 98° |
| 2026-05-04 19:42 | 9.07097 | 7.10193 | 10492 ft | 281 kts | 98° |
| 2026-05-04 19:42 | 9.06755 | 7.12076 | 10126 ft | 270 kts | 98° |
| 2026-05-04 19:42 | 9.06420 | 7.13913 | 9762 ft | 260 kts | 99° |
| 2026-05-04 19:43 | 9.06101 | 7.15677 | 9369 ft | 251 kts | 97° |
| 2026-05-04 19:43 | 9.06060 | 7.17401 | 8975 ft | 240 kts | 81° |
| 2026-05-04 19:43 | 9.06487 | 7.19002 | 8664 ft | 233 kts | 66° |
| 2026-05-04 19:43 | 9.07314 | 7.20412 | 8343 ft | 233 kts | 51° |
| 2026-05-04 19:44 | 9.08486 | 7.21545 | 8025 ft | 234 kts | 37° |
| 2026-05-04 19:44 | 9.09811 | 7.22477 | 7731 ft | 235 kts | 36° |
| 2026-05-04 19:44 | 9.11153 | 7.23424 | 7423 ft | 234 kts | 36° |
| 2026-05-04 19:44 | 9.12488 | 7.24368 | 7118 ft | 233 kts | 36° |
| 2026-05-04 19:45 | 9.13815 | 7.25307 | 6819 ft | 233 kts | 36° |
| 2026-05-04 19:45 | 9.15140 | 7.26246 | 6521 ft | 232 kts | 36° |
| 2026-05-04 19:45 | 9.16463 | 7.27182 | 6221 ft | 232 kts | 36° |
| 2026-05-04 19:45 | 9.17767 | 7.28103 | 5903 ft | 224 kts | 36° |
| 2026-05-04 19:46 | 9.19030 | 7.28992 | 5589 ft | 219 kts | 36° |
| 2026-05-04 19:46 | 9.20227 | 7.29953 | 5275 ft | 219 kts | 50° |
| 2026-05-04 19:46 | 9.20949 | 7.31274 | 4924 ft | 217 kts | 76° |
| 2026-05-04 19:46 | 9.21034 | 7.32783 | 4470 ft | 215 kts | 101° |
| 2026-05-04 19:47 | 9.20476 | 7.34152 | 4167 ft | 205 kts | 126° |
| 2026-05-04 19:47 | 9.19667 | 7.35292 | 3929 ft | 194 kts | 127° |
| 2026-05-04 19:47 | 9.18891 | 7.36389 | 3688 ft | 189 kts | 129° |
| 2026-05-04 19:47 | 9.17872 | 7.37172 | 3468 ft | 183 kts | 161° |
| 2026-05-04 19:48 | 9.16634 | 7.37304 | 3411 ft | 183 kts | 191° |
| 2026-05-04 19:48 | 9.15488 | 7.36792 | 3342 ft | 179 kts | 216° |
| 2026-05-04 19:48 | 9.14478 | 7.36070 | 3270 ft | 175 kts | 216° |
| 2026-05-04 19:48 | 9.13477 | 7.35363 | 3187 ft | 175 kts | 216° |
| 2026-05-04 19:49 | 9.12474 | 7.34654 | 3143 ft | 175 kts | 216° |
| 2026-05-04 19:49 | 9.11489 | 7.33958 | 3143 ft | 175 kts | 216° |
| 2026-05-04 19:49 | 9.10493 | 7.33255 | 3144 ft | 174 kts | 215° |
| 2026-05-04 19:49 | 9.09536 | 7.32580 | 3151 ft | 156 kts | 216° |
| 2026-05-04 19:50 | 9.08675 | 7.31973 | 3147 ft | 147 kts | 216° |
| 2026-05-04 19:50 | 9.07831 | 7.31384 | 2902 ft | 150 kts | 214° |
| 2026-05-04 19:50 | 9.06955 | 7.30797 | 2508 ft | 150 kts | 215° |
| 2026-05-04 19:50 | 9.06129 | 7.30196 | 2193 ft | 146 kts | 214° |
| 2026-05-04 19:51 | 9.05310 | 7.29609 | 1960 ft | 143 kts | 215° |
| 2026-05-04 19:51 | 9.04490 | 7.29043 | 1783 ft | 142 kts | 216° |
| 2026-05-04 19:51 | 9.03674 | 7.28464 | 1593 ft | 142 kts | 217° |
| 2026-05-04 19:51 | 9.02883 | 7.27892 | 1375 ft | 141 kts | 216° |
| 2026-05-04 19:52 | 9.02075 | 7.27314 | 1191 ft | 141 kts | 215° |
| 2026-05-04 19:52 | 9.01348 | 7.26787 | 1126 ft | 95 kts | 215° |
| 2026-05-04 19:52 | 9.01012 | 7.26549 | 1113 ft | 43 kts | 215° |
| 2026-05-04 19:52 | 9.00808 | 7.26407 | 1111 ft | 24 kts | 214° |
| 2026-05-04 19:53 | 9.00702 | 7.26377 | 1113 ft | 15 kts | 149° |
| 2026-05-04 19:53 | 9.00670 | 7.26418 | 1111 ft | 3 kts | 127° |
| 2026-05-04 19:53 | 9.00661 | 7.26431 | 1109 ft | 2 kts | 127° |
| 2026-05-04 19:53 | 9.00656 | 7.26437 | 1108 ft | 0 kts | 127° |
| 2026-05-04 19:55 | 9.00639 | 7.26460 | 1112 ft | 7 kts | 127° |
| 2026-05-04 19:56 | 9.00614 | 7.26494 | 1116 ft | 5 kts | 125° |
| 2026-05-04 19:56 | 9.00603 | 7.26511 | 1110 ft | 1 kts | 124° |
| 2026-05-04 19:56 | 9.00568 | 7.26557 | 1119 ft | 18 kts | 131° |
| 2026-05-04 19:56 | 9.00476 | 7.26629 | 1123 ft | 13 kts | 146° |
| 2026-05-04 19:57 | 9.00448 | 7.26684 | 1125 ft | 7 kts | 89° |
| 2026-05-04 19:57 | 9.00460 | 7.26724 | 1123 ft | 5 kts | 70° |
| 2026-05-04 19:57 | 9.00472 | 7.26756 | 1118 ft | 4 kts | 70° |
| 2026-05-04 19:57 | 9.00481 | 7.26781 | 1124 ft | 3 kts | 70° |
| 2026-05-04 19:58 | 9.00487 | 7.26799 | 1118 ft | 2 kts | 70° |
| 2026-05-04 19:58 | 9.00494 | 7.26810 | 1122 ft | 3 kts | 53° |
| 2026-05-04 19:58 | 9.00514 | 7.26824 | 1126 ft | 3 kts | 27° |
| 2026-05-04 19:58 | 9.00532 | 7.26829 | 1120 ft | 2 kts | 10° |
| 2026-05-04 19:59 | 9.00553 | 7.26830 | 1123 ft | 4 kts | 1° |
| 2026-05-04 19:59 | 9.00577 | 7.26831 | 1122 ft | 2 kts | 1° |
| 2026-05-04 19:59 | 9.00582 | 7.26831 | 1121 ft | 0 kts | 1° |